createdAt,value
2018-07-16T00:01:14.568Z,23.60
2018-07-16T00:03:43.385Z,23.60
2018-07-16T00:06:12.217Z,23.50
2018-07-16T00:08:41.045Z,23.40
2018-07-16T00:11:09.817Z,23.40
2018-07-16T00:13:38.676Z,23.40
2018-07-16T00:16:07.539Z,23.30
2018-07-16T00:18:36.353Z,23.30
2018-07-16T00:21:05.147Z,23.20
2018-07-16T00:23:33.982Z,23.20
2018-07-16T00:26:02.788Z,23.20
2018-07-16T00:28:31.578Z,23.10
2018-07-16T00:31:00.374Z,23.10
2018-07-16T00:33:29.183Z,23.10
2018-07-16T00:35:58.104Z,23.00
2018-07-16T00:38:26.895Z,23.00
2018-07-16T00:40:56.595Z,23.00
2018-07-16T00:43:25.502Z,22.90
2018-07-16T00:45:54.295Z,22.90
2018-07-16T00:48:23.168Z,22.90
2018-07-16T00:53:20.432Z,22.90
2018-07-16T00:55:49.240Z,22.80
2018-07-16T00:58:18.045Z,22.80
2018-07-16T01:00:46.898Z,22.80
2018-07-16T01:03:15.715Z,22.80
2018-07-16T01:05:44.529Z,22.80
2018-07-16T01:08:13.363Z,22.70
2018-07-16T01:10:42.208Z,22.70
2018-07-16T01:13:11.065Z,22.70
2018-07-16T01:15:39.902Z,22.70
2018-07-16T01:18:08.763Z,22.70
2018-07-16T01:20:37.538Z,22.70
2018-07-16T01:23:06.577Z,22.60
2018-07-16T01:25:35.395Z,22.60
2018-07-16T01:28:04.227Z,22.50
2018-07-16T01:30:33.137Z,22.50
2018-07-16T01:33:01.986Z,22.50
2018-07-16T01:35:30.758Z,22.50
2018-07-16T01:37:59.587Z,22.40
2018-07-16T01:40:28.392Z,22.40
2018-07-16T01:42:57.170Z,22.40
2018-07-16T01:45:26.030Z,22.30
2018-07-16T01:47:54.830Z,22.30
2018-07-16T01:50:23.619Z,22.30
2018-07-16T01:52:52.389Z,22.30
2018-07-16T01:55:21.273Z,22.30
2018-07-16T01:57:50.100Z,22.30
2018-07-16T02:00:18.872Z,22.20
2018-07-16T02:02:47.697Z,22.20
2018-07-16T02:05:16.538Z,22.20
2018-07-16T02:07:45.328Z,22.20
2018-07-16T02:10:14.189Z,22.20
2018-07-16T02:12:42.970Z,22.20
2018-07-16T02:15:11.826Z,22.20
2018-07-16T02:17:40.678Z,22.20
2018-07-16T02:20:10.266Z,22.20
2018-07-16T02:22:39.198Z,22.20
2018-07-16T02:25:08.818Z,22.20
2018-07-16T02:27:37.650Z,22.10
2018-07-16T02:30:06.517Z,22.10
2018-07-16T02:32:35.410Z,22.10
2018-07-16T02:35:04.533Z,22.10
2018-07-16T02:37:33.390Z,22.10
2018-07-16T02:40:02.163Z,22.10
2018-07-16T02:42:31.015Z,22.10
2018-07-16T02:44:59.829Z,22.10
2018-07-16T02:47:28.585Z,22.10
2018-07-16T02:49:57.465Z,22.00
2018-07-16T02:52:26.324Z,22.00
2018-07-16T02:54:55.229Z,22.00
2018-07-16T02:57:24.067Z,21.90
2018-07-16T02:59:52.992Z,21.90
2018-07-16T03:02:21.816Z,21.90
2018-07-16T03:04:50.691Z,21.90
2018-07-16T03:07:19.536Z,21.90
2018-07-16T03:09:48.350Z,21.80
2018-07-16T03:12:17.255Z,21.80
2018-07-16T03:14:46.101Z,21.80
2018-07-16T03:17:14.924Z,21.80
2018-07-16T03:19:43.752Z,21.80
2018-07-16T03:22:12.562Z,21.80
2018-07-16T03:24:41.373Z,21.70
2018-07-16T03:27:10.208Z,21.80
2018-07-16T03:29:39.009Z,21.80
2018-07-16T03:32:07.874Z,21.80
2018-07-16T03:34:36.754Z,21.80
2018-07-16T03:37:05.574Z,21.80
2018-07-16T03:39:34.451Z,21.80
2018-07-16T03:42:03.352Z,21.80
2018-07-16T03:44:32.194Z,21.80
2018-07-16T03:47:01.022Z,21.80
2018-07-16T03:49:29.893Z,21.80
2018-07-16T03:51:58.693Z,21.90
2018-07-16T03:54:27.486Z,21.90
2018-07-16T03:56:56.408Z,21.90
2018-07-16T03:59:25.252Z,21.90
2018-07-16T04:01:54.113Z,21.90
2018-07-16T04:04:22.934Z,21.90
2018-07-16T04:06:51.768Z,22.00
2018-07-16T04:09:20.718Z,22.00
2018-07-16T04:11:49.502Z,22.00
2018-07-16T04:14:18.454Z,22.00
2018-07-16T04:16:47.690Z,22.00
2018-07-16T04:19:16.544Z,22.00
2018-07-16T04:21:45.376Z,22.00
2018-07-16T04:24:14.184Z,22.10
2018-07-16T04:26:43.065Z,22.20
2018-07-16T04:29:11.882Z,22.20
2018-07-16T04:31:40.782Z,22.20
2018-07-16T04:34:09.601Z,22.30
2018-07-16T04:36:38.494Z,22.30
2018-07-16T04:39:07.601Z,22.40
2018-07-16T04:41:36.891Z,22.50
2018-07-16T04:44:05.782Z,22.50
2018-07-16T04:46:34.621Z,22.60
2018-07-16T04:49:03.434Z,22.50
2018-07-16T04:51:32.229Z,22.50
2018-07-16T04:54:01.158Z,22.50
2018-07-16T04:56:29.984Z,22.60
2018-07-16T04:58:58.757Z,22.60
2018-07-16T05:01:27.709Z,22.70
2018-07-16T05:06:24.959Z,22.80
2018-07-16T05:08:53.802Z,22.80
2018-07-16T05:11:22.681Z,22.90
2018-07-16T05:13:51.474Z,22.90
2018-07-16T05:16:20.306Z,23.00
2018-07-16T05:18:49.097Z,23.20
2018-07-16T05:21:18.012Z,23.10
2018-07-16T05:23:46.825Z,23.20
2018-07-16T05:26:15.689Z,23.20
2018-07-16T05:28:44.509Z,23.30
2018-07-16T05:31:13.352Z,23.40
2018-07-16T05:33:42.176Z,23.40
2018-07-16T05:36:11.354Z,23.50
2018-07-16T05:38:40.214Z,23.50
2018-07-16T05:41:09.053Z,23.70
2018-07-16T05:43:37.882Z,23.80
2018-07-16T05:46:06.763Z,23.80
2018-07-16T05:48:35.600Z,23.90
2018-07-16T05:51:04.506Z,24.00
2018-07-16T05:53:33.331Z,24.30
2018-07-16T05:56:02.202Z,24.30
2018-07-16T05:58:31.039Z,24.50
2018-07-16T06:00:59.898Z,24.80
2018-07-16T06:03:28.723Z,24.80
2018-07-16T06:05:57.630Z,25.00
2018-07-16T06:08:26.499Z,25.30
2018-07-16T06:10:55.389Z,25.30
2018-07-16T06:13:24.245Z,25.50
2018-07-16T06:15:53.217Z,25.60
2018-07-16T06:18:22.095Z,25.80
2018-07-16T06:20:51.024Z,26.00
2018-07-16T06:23:19.820Z,26.10
2018-07-16T06:25:48.660Z,26.30
2018-07-16T06:28:17.488Z,26.50
2018-07-16T06:30:46.325Z,26.70
2018-07-16T06:33:15.227Z,26.80
2018-07-16T06:35:44.046Z,26.90
2018-07-16T06:38:12.876Z,27.10
2018-07-16T06:40:41.852Z,27.50
2018-07-16T06:43:10.529Z,27.50
2018-07-16T06:45:39.703Z,27.70
2018-07-16T06:48:08.555Z,27.80
2018-07-16T06:50:37.422Z,27.90
2018-07-16T06:53:06.192Z,28.10
2018-07-16T06:55:35.053Z,28.30
2018-07-16T06:58:03.893Z,28.50
2018-07-16T07:00:32.717Z,28.60
2018-07-16T07:03:01.509Z,28.90
2018-07-16T07:05:30.358Z,29.00
2018-07-16T07:07:59.182Z,29.20
2018-07-16T07:10:28.010Z,29.30
2018-07-16T07:12:56.882Z,29.60
2018-07-16T07:15:25.716Z,29.80
2018-07-16T07:17:54.613Z,30.20
2018-07-16T07:20:23.450Z,30.20
2018-07-16T07:22:52.311Z,30.40
2018-07-16T07:25:21.224Z,30.90
2018-07-16T07:27:50.091Z,30.90
2018-07-16T07:30:18.875Z,31.10
2018-07-16T07:32:47.666Z,31.70
2018-07-16T07:35:16.696Z,31.70
2018-07-16T07:37:45.367Z,32.00
2018-07-16T07:40:14.260Z,32.50
2018-07-16T07:42:43.122Z,32.90
2018-07-16T07:45:11.947Z,33.60
2018-07-16T07:47:40.920Z,34.20
2018-07-16T07:50:09.737Z,34.80
2018-07-16T07:52:38.642Z,35.40
2018-07-16T07:55:08.038Z,36.10
2018-07-16T07:57:36.633Z,36.60
2018-07-16T08:00:06.314Z,37.40
2018-07-16T08:02:35.206Z,38.20
2018-07-16T08:05:04.089Z,39.00
2018-07-16T08:07:32.950Z,40.00
2018-07-16T08:10:01.842Z,40.80
2018-07-16T08:12:30.731Z,41.40
2018-07-16T08:14:59.516Z,42.10
2018-07-16T08:17:28.383Z,42.60
2018-07-16T08:19:57.300Z,43.20
2018-07-16T08:22:26.173Z,44.00
2018-07-16T08:24:55.097Z,44.40
2018-07-16T08:29:52.673Z,45.20
2018-07-16T08:32:21.529Z,45.20
2018-07-16T08:34:50.341Z,45.10
2018-07-16T08:37:19.146Z,45.20
2018-07-16T08:39:48.075Z,45.40
2018-07-16T08:42:16.982Z,45.80
2018-07-16T08:44:45.861Z,46.50
2018-07-16T08:47:14.705Z,45.80
2018-07-16T08:49:43.751Z,45.60
2018-07-16T08:52:12.769Z,45.20
2018-07-16T08:54:41.730Z,45.40
2018-07-16T08:57:10.571Z,45.80
2018-07-16T08:59:39.469Z,46.40
2018-07-16T09:02:08.311Z,46.10
2018-07-16T09:04:37.187Z,45.00
2018-07-16T09:07:06.356Z,43.60
2018-07-16T09:09:35.213Z,43.40
2018-07-16T09:12:04.026Z,43.70
2018-07-16T09:14:32.891Z,43.90
2018-07-16T09:17:01.831Z,43.90
2018-07-16T09:19:30.589Z,44.50
2018-07-16T09:21:59.402Z,45.00
2018-07-16T09:24:28.240Z,45.70
2018-07-16T09:26:57.049Z,46.30
2018-07-16T09:29:25.925Z,46.70
2018-07-16T09:31:54.798Z,46.90
2018-07-16T09:34:23.602Z,47.40
2018-07-16T09:36:52.472Z,47.60
2018-07-16T09:39:21.302Z,48.00
2018-07-16T09:41:50.268Z,48.20
2018-07-16T09:44:19.138Z,48.30
2018-07-16T09:46:47.984Z,48.30
2018-07-16T09:49:16.813Z,48.30
2018-07-16T09:51:45.576Z,48.50
2018-07-16T09:54:14.370Z,48.50
2018-07-16T09:56:43.250Z,48.50
2018-07-16T09:59:12.094Z,48.80
2018-07-16T10:01:45.092Z,48.90
2018-07-16T10:04:15.073Z,48.90
2018-07-16T10:06:43.913Z,48.90
2018-07-16T10:09:12.720Z,48.80
2018-07-16T10:11:41.586Z,48.90
2018-07-16T10:14:10.392Z,49.30
2018-07-16T10:16:39.220Z,49.30
2018-07-16T10:19:08.063Z,49.40
2018-07-16T10:24:05.308Z,49.50
2018-07-16T10:26:34.107Z,50.00
2018-07-16T10:29:02.948Z,50.00
2018-07-16T10:31:31.748Z,49.90
2018-07-16T10:34:00.733Z,49.90
2018-07-16T10:36:29.425Z,49.70
2018-07-16T10:38:58.245Z,49.40
2018-07-16T10:41:27.022Z,49.00
2018-07-16T10:43:55.838Z,49.00
2018-07-16T10:46:24.647Z,48.90
2018-07-16T10:48:53.444Z,48.90
2018-07-16T10:51:22.307Z,49.00
2018-07-16T10:53:51.168Z,48.80
2018-07-16T10:56:19.973Z,48.40
2018-07-16T10:58:48.758Z,48.20
2018-07-16T11:01:17.658Z,47.90
2018-07-16T11:06:20.267Z,44.50
2018-07-16T11:08:49.236Z,44.40
2018-07-16T11:11:18.079Z,42.20
2018-07-16T11:13:46.901Z,41.30
2018-07-16T11:16:15.917Z,41.20
2018-07-16T11:21:13.223Z,38.90
2018-07-16T11:23:42.052Z,38.20
2018-07-16T11:26:10.946Z,38.10
2018-07-16T11:28:39.816Z,37.60
2018-07-16T11:31:08.722Z,37.00
2018-07-16T11:33:37.546Z,36.30
2018-07-16T11:36:06.387Z,35.80
2018-07-16T11:38:35.214Z,35.00
2018-07-16T11:41:04.437Z,34.50
2018-07-16T11:43:33.246Z,34.50
2018-07-16T11:46:02.201Z,33.80
2018-07-16T11:48:30.990Z,33.80
2018-07-16T11:50:59.862Z,33.60
2018-07-16T11:53:28.743Z,33.40
2018-07-16T11:55:57.606Z,33.20
2018-07-16T11:58:26.471Z,33.00
2018-07-16T12:00:55.352Z,32.70
2018-07-16T12:03:24.187Z,32.50
2018-07-16T12:05:52.997Z,32.40
2018-07-16T12:08:21.839Z,32.30
2018-07-16T12:10:50.700Z,32.20
2018-07-16T12:13:19.581Z,31.90
2018-07-16T12:15:48.428Z,31.80
2018-07-16T12:18:17.676Z,31.80
2018-07-16T12:20:46.500Z,31.70
2018-07-16T12:23:16.649Z,31.70
2018-07-16T12:25:46.154Z,31.60
2018-07-16T12:28:14.951Z,31.60
2018-07-16T12:30:43.753Z,31.50
2018-07-16T12:33:12.641Z,31.30
2018-07-16T12:35:41.499Z,31.30
2018-07-16T12:38:10.354Z,31.10
2018-07-16T12:40:39.833Z,31.10
2018-07-16T12:45:37.079Z,31.00
2018-07-16T12:48:06.494Z,30.90
2018-07-16T12:50:35.339Z,30.90
2018-07-16T12:53:04.237Z,30.90
2018-07-16T12:55:33.138Z,30.90
2018-07-16T12:58:01.930Z,30.80
2018-07-16T13:00:32.957Z,30.80
2018-07-16T13:03:02.814Z,30.80
2018-07-16T13:05:31.649Z,30.80
2018-07-16T13:08:00.546Z,30.70
2018-07-16T13:10:30.530Z,30.70
2018-07-16T13:12:59.957Z,30.60
2018-07-16T13:15:28.732Z,30.60
2018-07-16T13:17:57.541Z,30.60
2018-07-16T13:22:54.729Z,30.60
2018-07-16T13:25:23.572Z,30.60
2018-07-16T13:27:52.403Z,30.70
2018-07-16T13:30:21.290Z,30.70
2018-07-16T13:32:50.156Z,30.70
2018-07-16T13:35:19.027Z,30.70
2018-07-16T13:37:47.890Z,30.70
2018-07-16T13:40:16.731Z,30.90
2018-07-16T13:42:45.494Z,30.90
2018-07-16T13:45:14.468Z,30.80
2018-07-16T13:47:43.326Z,30.90
2018-07-16T13:50:12.129Z,30.80
2018-07-16T13:52:41.024Z,30.80
2018-07-16T13:55:09.986Z,30.80
2018-07-16T13:57:39.372Z,30.70
2018-07-16T14:00:09.231Z,30.70
2018-07-16T14:02:38.074Z,30.60
2018-07-16T14:05:06.955Z,30.50
2018-07-16T14:07:35.807Z,30.50
2018-07-16T14:12:33.166Z,30.40
2018-07-16T14:15:02.032Z,30.40
2018-07-16T14:17:30.882Z,30.40
2018-07-16T14:19:59.740Z,30.30
2018-07-16T14:24:56.969Z,30.20
2018-07-16T14:27:25.789Z,30.10
2018-07-16T14:29:54.581Z,30.10
2018-07-16T14:32:23.384Z,29.90
2018-07-16T14:34:52.279Z,29.90
2018-07-16T14:37:21.110Z,29.80
2018-07-16T14:39:49.989Z,29.80
2018-07-16T14:42:18.916Z,29.80
2018-07-16T14:44:47.791Z,29.70
2018-07-16T14:47:16.579Z,29.70
2018-07-16T14:49:45.493Z,29.60
2018-07-16T14:52:14.368Z,29.60
2018-07-16T14:54:43.231Z,29.60
2018-07-16T14:57:12.031Z,29.60
2018-07-16T14:59:40.873Z,29.60
2018-07-16T15:02:09.886Z,29.50
2018-07-16T15:04:38.697Z,29.60
2018-07-16T15:07:07.578Z,29.60
2018-07-16T15:09:36.496Z,29.60
2018-07-16T15:12:05.328Z,29.60
2018-07-16T15:14:34.162Z,29.60
2018-07-16T15:17:03.588Z,29.60
2018-07-16T15:19:32.438Z,29.50
2018-07-16T15:22:01.251Z,29.50
2018-07-16T15:26:58.718Z,29.40
2018-07-16T15:29:27.502Z,29.40
2018-07-16T15:31:56.422Z,29.30
2018-07-16T15:34:25.239Z,29.30
2018-07-16T15:36:54.050Z,29.20
2018-07-16T15:39:22.942Z,29.30
2018-07-16T15:44:20.268Z,29.20
2018-07-16T15:49:17.586Z,29.00
2018-07-16T15:51:46.380Z,29.00
2018-07-16T15:56:43.702Z,28.90
2018-07-16T15:59:12.554Z,28.90
2018-07-16T16:01:41.384Z,28.90
2018-07-16T16:04:11.224Z,28.90
2018-07-16T16:06:40.083Z,28.90
2018-07-16T16:09:09.898Z,28.90
2018-07-16T16:11:38.742Z,28.90
2018-07-16T16:14:07.668Z,28.90
2018-07-16T16:16:36.533Z,28.90
2018-07-16T16:21:34.162Z,28.80
2018-07-16T16:24:03.051Z,28.80
2018-07-16T16:26:31.875Z,28.80
2018-07-16T16:29:00.716Z,28.70
2018-07-16T16:33:58.104Z,28.70
2018-07-16T16:36:27.018Z,28.70
2018-07-16T16:38:55.811Z,28.70
2018-07-16T16:41:24.692Z,28.60
2018-07-16T16:43:53.542Z,28.60
2018-07-16T16:46:22.476Z,28.50
2018-07-16T16:48:51.257Z,28.40
2018-07-16T16:51:20.086Z,28.40
2018-07-16T16:53:48.930Z,28.40
2018-07-16T16:56:17.829Z,28.30
2018-07-16T16:58:46.643Z,28.30
2018-07-16T17:01:15.518Z,28.20
2018-07-16T17:03:44.359Z,28.10
2018-07-16T17:06:13.291Z,28.10
2018-07-16T17:08:42.188Z,28.10
2018-07-16T17:11:11.094Z,28.10
2018-07-16T17:13:39.929Z,28.00
2018-07-16T17:16:08.776Z,28.00
2018-07-16T17:18:37.622Z,27.80
2018-07-16T17:21:06.725Z,27.80
2018-07-16T17:23:35.607Z,27.80
2018-07-16T17:26:04.462Z,27.80
2018-07-16T17:28:33.629Z,27.70
2018-07-16T17:31:02.564Z,27.60
2018-07-16T17:33:31.408Z,27.60
2018-07-16T17:36:00.295Z,27.50
2018-07-16T17:38:29.104Z,27.50
2018-07-16T17:40:57.985Z,27.50
2018-07-16T17:43:26.860Z,27.40
2018-07-16T17:45:56.765Z,27.30
2018-07-16T17:48:25.565Z,27.20
2018-07-16T17:53:22.917Z,27.20
2018-07-16T17:55:51.631Z,27.10
2018-07-16T17:58:20.527Z,27.00
2018-07-16T18:00:49.341Z,27.00
2018-07-16T18:03:18.242Z,27.00
2018-07-16T18:05:47.130Z,26.80
2018-07-16T18:08:15.954Z,26.80
2018-07-16T18:10:44.856Z,26.70
2018-07-16T18:13:13.651Z,26.70
2018-07-16T18:15:42.541Z,26.60
2018-07-16T18:18:11.397Z,26.50
2018-07-16T18:20:40.256Z,26.50
2018-07-16T18:23:09.170Z,26.50
2018-07-16T18:25:38.002Z,26.40
2018-07-16T18:28:06.943Z,26.30
2018-07-16T18:30:35.825Z,26.30
2018-07-16T18:33:04.753Z,26.30
2018-07-16T18:35:33.733Z,26.30
2018-07-16T18:38:02.615Z,26.30
2018-07-16T18:42:59.959Z,26.30
2018-07-16T18:45:28.799Z,26.30
2018-07-16T18:47:57.722Z,26.20
2018-07-16T18:50:26.602Z,26.10
2018-07-16T18:52:55.470Z,26.10
2018-07-16T18:55:24.388Z,26.00
2018-07-16T18:57:53.201Z,25.80
2018-07-16T19:02:50.525Z,25.70
2018-07-16T19:12:44.850Z,25.50
2018-07-16T19:15:18.387Z,25.50
2018-07-16T19:17:47.308Z,25.40
2018-07-16T19:20:16.162Z,25.40
2018-07-16T19:25:13.465Z,25.30
2018-07-16T19:27:42.587Z,25.20
2018-07-16T19:30:11.627Z,25.10
2018-07-16T19:32:40.490Z,25.00
2018-07-16T19:37:37.922Z,24.80
2018-07-16T19:40:07.895Z,24.70
2018-07-16T19:42:36.768Z,24.70
2018-07-16T19:45:05.735Z,24.60
2018-07-16T19:47:34.624Z,24.60
2018-07-16T19:52:31.917Z,24.40
2018-07-16T19:55:00.796Z,24.40
2018-07-16T19:57:29.693Z,24.30
2018-07-16T19:59:58.530Z,24.20
2018-07-16T20:02:27.412Z,24.10
2018-07-16T20:04:56.291Z,24.00
2018-07-16T20:07:25.128Z,23.90
2018-07-16T20:09:54.075Z,23.90
2018-07-16T20:12:31.728Z,23.80
2018-07-16T20:15:01.694Z,23.80
2018-07-16T20:17:30.813Z,23.70
2018-07-16T20:20:00.149Z,23.80
2018-07-16T20:22:29.663Z,23.70
2018-07-16T20:24:58.915Z,23.80
2018-07-16T20:27:27.757Z,23.80
2018-07-16T20:29:56.836Z,23.80
2018-07-16T20:32:25.695Z,23.80
2018-07-16T20:34:54.605Z,23.70
2018-07-16T20:37:23.532Z,23.70
2018-07-16T20:39:52.512Z,23.60
2018-07-16T20:42:21.288Z,23.60
2018-07-16T20:44:50.112Z,23.60
2018-07-16T20:47:18.943Z,23.50
2018-07-16T20:52:16.338Z,23.50
2018-07-16T20:54:45.439Z,23.40
2018-07-16T20:57:14.341Z,23.50
2018-07-16T20:59:43.256Z,23.40
2018-07-16T21:02:12.137Z,23.30
2018-07-16T21:04:40.961Z,23.30
2018-07-16T21:07:09.886Z,23.30
2018-07-16T21:09:38.753Z,23.30
2018-07-16T21:12:07.581Z,23.30
2018-07-16T21:14:36.439Z,23.20
2018-07-16T21:17:05.273Z,23.20
2018-07-16T21:19:34.098Z,23.20
2018-07-16T21:22:02.985Z,23.20
2018-07-16T21:24:31.907Z,23.10
2018-07-16T21:27:00.753Z,23.10
2018-07-16T21:31:58.077Z,23.10
2018-07-16T21:34:26.897Z,23.20
2018-07-16T21:36:55.695Z,23.20
2018-07-16T21:39:24.555Z,23.20
2018-07-16T21:41:53.550Z,23.20
2018-07-16T21:44:22.455Z,23.00
2018-07-16T21:46:51.261Z,23.00
2018-07-16T21:49:20.104Z,23.00
2018-07-16T21:54:17.324Z,23.00
2018-07-16T21:56:46.163Z,22.90
2018-07-16T21:59:14.953Z,22.90
2018-07-16T22:01:43.816Z,22.90
2018-07-16T22:04:12.660Z,22.80
2018-07-16T22:06:41.454Z,22.80
2018-07-16T22:09:10.273Z,22.60
2018-07-16T22:11:39.134Z,22.60
2018-07-16T22:14:08.082Z,22.50
2018-07-16T22:16:36.921Z,22.50
2018-07-16T22:19:06.092Z,22.50
2018-07-16T22:21:34.895Z,22.50
2018-07-16T22:24:03.785Z,22.40
2018-07-16T22:26:32.580Z,22.40
2018-07-16T22:29:01.422Z,22.40
2018-07-16T22:31:30.178Z,22.40
2018-07-16T22:33:59.038Z,22.40
2018-07-16T22:36:27.852Z,22.40
2018-07-16T22:38:56.739Z,22.40
2018-07-16T22:41:25.556Z,22.20
2018-07-16T22:43:54.393Z,22.10
2018-07-16T22:46:23.218Z,22.20
2018-07-16T22:48:51.998Z,22.10
2018-07-16T22:51:20.851Z,22.10
2018-07-16T22:53:49.647Z,22.10
2018-07-16T22:56:18.532Z,22.10
2018-07-16T22:58:47.327Z,22.00
2018-07-16T23:01:16.216Z,22.00
2018-07-16T23:03:45.059Z,21.90
2018-07-16T23:06:13.847Z,21.90
2018-07-16T23:08:42.706Z,21.90
2018-07-16T23:11:11.524Z,21.80
2018-07-16T23:13:40.378Z,21.70
2018-07-16T23:16:09.251Z,21.70
2018-07-16T23:18:38.127Z,19.80
2018-07-16T23:21:06.950Z,21.60
2018-07-16T23:23:35.791Z,21.50
2018-07-16T23:26:04.655Z,21.50
2018-07-16T23:28:33.515Z,21.50
2018-07-16T23:31:03.348Z,21.50
2018-07-16T23:33:32.114Z,21.40
2018-07-16T23:36:00.939Z,21.40
2018-07-16T23:38:29.747Z,21.40
2018-07-16T23:40:58.574Z,21.30
2018-07-16T23:43:27.516Z,21.40
2018-07-16T23:45:56.428Z,21.40
2018-07-16T23:48:25.257Z,21.50
2018-07-16T23:53:22.497Z,21.50
2018-07-16T23:55:51.297Z,21.60
2018-07-16T23:58:20.130Z,21.60
